首页
METAR-TAF:

METAR-TAF

机场 :

拉多姆, 波兰

纬度: 51-23-21N, 经度: 21-12-49E, 海拔: 186米

当前天气观测

该预报发布于36分钟前的07:30 UTC
风速14节,风向东南
温度 3°C
湿度 93%
气压 995 hPa
能見度: 7000
多云层高于600英尺

METAR: EPRA 130730Z 13014KT 7000 BKN006 03/02 Q0995

时间: 09:06 (08:06 UTC)

预报

该预报发布于1小时和5分钟前的07:01 UTC
预报有效从13日的 06点(UTC)到 13日的 15点(UTC)
风速14节,风向东南
能見度: 6000
多云层高于800英尺
小雨
成为
从 13日的 09点(UTC)到 13日的 11点(UTC)
能见度10公里或以上
多云层高于2000英尺

TAF: EPRA 130701Z 1306/1315 13014KT 6000 -RA BKN008 BECMG 1309/1311 9999 BKN020

超过4000个机场的气象观测和天气预报(METAR&TAF报告)。

可查询的气象台以黄色和红色小点在地图上表示。

将鼠标移到小点上方,可查看气象台名称。

然后点击查看天气观测和预报。

如需切换地图:点击带黑十字的绿色按钮放大地图;点击带横线的绿色按钮缩小地图;或者点击绿色箭头查看邻近地区的地图。


METAR-TAF: